createdAt,value
2023-03-06T08:04:28.312Z,95.62
2023-03-06T08:05:28.805Z,90.00
2023-03-06T08:06:30.836Z,90.00
2023-03-06T08:07:32.848Z,84.37
2023-03-06T08:08:34.877Z,84.37
2023-03-06T08:09:36.909Z,90.00
2023-03-06T08:10:38.932Z,90.00
2023-03-06T08:11:40.958Z,90.00
2023-03-06T08:12:42.994Z,78.75
2023-03-06T08:13:45.014Z,73.12
2023-03-06T08:14:47.048Z,67.50
2023-03-06T08:15:49.074Z,61.87
2023-03-06T08:16:51.108Z,61.87
2023-03-06T08:17:53.121Z,67.50
2023-03-06T08:18:55.154Z,73.12
2023-03-06T08:19:57.221Z,78.75
2023-03-06T08:20:59.244Z,101.25
2023-03-06T08:22:01.278Z,123.75
2023-03-06T08:23:03.284Z,135.00
2023-03-06T08:24:06.731Z,140.62
2023-03-06T08:25:07.336Z,129.37
2023-03-06T08:26:09.324Z,112.50
2023-03-06T08:27:11.348Z,106.87
2023-03-06T08:28:13.368Z,101.25
2023-03-06T08:29:15.399Z,90.00
2023-03-06T08:30:17.421Z,90.00
2023-03-06T08:31:19.465Z,90.00
2023-03-06T08:32:21.542Z,101.25
2023-03-06T08:33:23.534Z,118.12
2023-03-06T08:34:25.557Z,129.37
2023-03-06T08:35:27.622Z,123.75
2023-03-06T08:36:29.628Z,123.75
2023-03-06T08:37:31.659Z,112.50
2023-03-06T08:38:33.680Z,106.87
2023-03-06T08:39:35.702Z,101.25
2023-03-06T08:40:37.726Z,101.25
2023-03-06T08:41:39.753Z,101.25
2023-03-06T08:42:41.770Z,118.12
2023-03-06T08:43:43.795Z,135.00
2023-03-06T08:44:45.813Z,157.50
2023-03-06T08:45:47.922Z,168.75
2023-03-06T08:46:49.917Z,174.37
2023-03-06T08:47:51.949Z,185.62
2023-03-06T08:48:54.000Z,196.87
2023-03-06T08:49:56.034Z,196.87
2023-03-06T08:50:58.058Z,196.87
2023-03-06T08:52:00.135Z,191.25
2023-03-06T08:53:02.139Z,196.87
2023-03-06T08:54:04.143Z,208.12
2023-03-06T08:55:06.178Z,230.62
2023-03-06T08:56:08.188Z,247.50
2023-03-06T08:57:10.213Z,258.75
2023-03-06T08:58:12.233Z,264.37
2023-03-06T08:59:14.289Z,275.62
2023-03-06T09:00:16.346Z,275.62
2023-03-06T09:01:18.397Z,264.37
2023-03-06T09:02:20.394Z,253.12
2023-03-06T09:03:22.417Z,241.87
2023-03-06T09:04:24.446Z,241.87
2023-03-06T09:05:26.518Z,247.50
2023-03-06T09:06:28.581Z,253.12
2023-03-06T09:07:30.619Z,275.62
2023-03-06T09:08:32.636Z,292.50
2023-03-06T09:09:34.665Z,303.75
2023-03-06T09:10:36.762Z,292.50
2023-03-06T09:11:38.778Z,264.37
2023-03-06T09:12:49.741Z,253.12
2023-03-06T09:13:42.218Z,241.87
2023-03-06T09:14:44.252Z,230.62
2023-03-06T09:15:46.393Z,225.00
2023-03-06T09:16:48.499Z,219.37
2023-03-06T09:17:50.550Z,219.37
2023-03-06T09:18:52.535Z,213.75
2023-03-06T09:19:54.577Z,208.12
2023-03-06T09:20:56.585Z,208.12
2023-03-06T09:21:58.646Z,208.12
2023-03-06T09:23:00.674Z,213.75
2023-03-06T09:24:02.687Z,219.37
